Time;durP1;ratioP1;P1;durP2;ratioP2;P2;SDS_P1;SDS_P2;PMS_P1;PMS_P2;Temp;Humidity;BMP_temperature;BMP_pressure;BME280_temperature;BME280_humidity;BME280_pressure;Samples;Min_cycle;Max_cycle;Signal;HPM_P1;HPM_P2
2022/07/04 00:00:13;;;;;;;5.13;2.60;;;;;;;17.99;63.52;98761.09;4134915;28;20026;-71
2022/07/04 00:02:14;;;;;;;3.15;2.60;;;;;;;18.01;63.22;98764.25;4136551;28;20493;-71
2022/07/04 00:04:14;;;;;;;3.33;2.53;;;;;;;17.96;63.63;98761.94;4135064;28;20048;-71
2022/07/04 00:06:14;;;;;;;3.05;2.47;;;;;;;17.93;63.00;98771.97;4137864;28;20410;-70
2022/07/04 00:08:15;;;;;;;2.55;2.35;;;;;;;17.94;63.20;98775.56;4135247;28;20124;-71
2022/07/04 00:10:18;;;;;;;2.90;2.28;;;;;;;17.90;64.11;98775.63;4135165;28;20657;-72
2022/07/04 00:12:18;;;;;;;3.28;2.63;;;;;;;17.87;64.14;98781.25;4135783;28;20037;-72
2022/07/04 00:14:18;;;;;;;3.67;2.25;;;;;;;17.82;64.57;98779.72;4134438;28;20034;-72
2022/07/04 00:16:19;;;;;;;3.20;2.30;;;;;;;17.68;65.14;98791.03;4136092;28;20073;-72
2022/07/04 00:18:19;;;;;;;4.15;2.90;;;;;;;17.64;65.32;98790.31;4135095;28;20075;-73
2022/07/04 00:20:19;;;;;;;2.50;2.30;;;;;;;17.59;65.70;98785.16;4135910;28;20026;-72
2022/07/04 00:22:20;;;;;;;2.92;2.50;;;;;;;17.57;65.89;98788.38;4134833;28;20065;-72
2022/07/04 00:24:20;;;;;;;2.63;2.35;;;;;;;17.53;65.65;98790.41;4136947;28;20032;-72
2022/07/04 00:26:20;;;;;;;4.05;2.78;;;;;;;17.47;66.47;98785.72;4136440;28;20518;-72
2022/07/04 00:28:21;;;;;;;3.15;2.42;;;;;;;17.43;67.11;98794.13;4135279;28;20045;-72
2022/07/04 00:30:21;;;;;;;2.60;2.40;;;;;;;17.37;67.50;98787.41;4136195;28;20032;-72
2022/07/04 00:32:22;;;;;;;2.75;2.55;;;;;;;17.36;68.03;98783.03;4136644;28;20033;-73
2022/07/04 00:34:22;;;;;;;2.80;2.60;;;;;;;17.37;68.07;98784.59;4135924;28;20072;-72
2022/07/04 00:36:22;;;;;;;3.55;2.60;;;;;;;17.38;68.16;98783.41;4134691;28;20116;-72
2022/07/04 00:38:23;;;;;;;4.43;3.00;;;;;;;17.38;68.09;98780.63;4135528;28;20422;-72
2022/07/04 00:40:23;;;;;;;3.65;2.88;;;;;;;17.29;68.18;98778.28;4136173;28;20374;-72
2022/07/04 00:42:23;;;;;;;2.80;2.50;;;;;;;17.22;68.42;98781.19;4135832;28;20466;-72
2022/07/04 00:44:24;;;;;;;2.70;2.30;;;;;;;17.16;69.38;98787.63;4135448;28;20076;-72
2022/07/04 00:46:24;;;;;;;3.03;2.67;;;;;;;17.09;69.69;98780.91;4134616;28;20042;-72
2022/07/04 00:48:25;;;;;;;2.60;2.40;;;;;;;17.10;69.83;98784.50;4136149;28;20033;-72
2022/07/04 00:50:26;;;;;;;6.15;2.22;;;;;;;17.04;70.71;98791.72;4136110;28;20033;-71
2022/07/04 00:52:28;;;;;;;3.05;2.15;;;;;;;16.84;71.90;98791.53;4135625;28;20455;-71
2022/07/04 00:54:31;;;;;;;4.22;2.47;;;;;;;16.80;72.58;98793.56;4136298;28;20052;-71
2022/07/04 00:56:34;;;;;;;2.70;2.40;;;;;;;16.75;72.75;98794.78;4136211;28;20026;-71
2022/07/04 00:58:35;;;;;;;8.00;2.40;;;;;;;16.68;73.32;98803.19;4135884;28;20034;-72
2022/07/04 01:00:35;;;;;;;4.47;2.47;;;;;;;16.67;73.37;98792.44;4136036;28;20040;-72
2022/07/04 01:02:35;;;;;;;2.00;1.80;;;;;;;16.73;73.43;98788.03;4136724;28;20032;-72
2022/07/04 01:04:36;;;;;;;3.90;2.10;;;;;;;16.69;73.16;98788.03;4135048;28;20087;-72
2022/07/04 01:06:37;;;;;;;3.55;2.35;;;;;;;16.69;73.51;98793.63;4136446;28;20378;-72
2022/07/04 01:08:40;;;;;;;5.13;2.42;;;;;;;16.68;73.29;98792.03;4136247;28;20533;-72
2022/07/04 01:10:40;;;;;;;3.88;2.40;;;;;;;16.72;73.38;98797.63;4134554;28;20483;-72
2022/07/04 01:12:40;;;;;;;2.47;2.20;;;;;;;16.69;73.43;98802.00;4135512;28;20205;-72
2022/07/04 01:14:41;;;;;;;2.65;2.00;;;;;;;16.71;73.34;98805.19;4136247;28;20034;-72
2022/07/04 01:16:41;;;;;;;3.72;2.80;;;;;;;16.69;73.53;98813.19;4139277;28;20313;-72
2022/07/04 01:18:42;;;;;;;3.20;2.10;;;;;;;16.67;73.27;98815.56;4137914;28;20038;-72
2022/07/04 01:20:42;;;;;;;4.15;2.35;;;;;;;16.65;73.52;98825.59;4137175;28;20060;-72
2022/07/04 01:22:43;;;;;;;3.38;2.30;;;;;;;16.66;73.65;98818.78;4139373;28;20114;-72
2022/07/04 01:24:43;;;;;;;4.18;2.17;;;;;;;16.67;73.67;98818.38;4138028;28;20798;-72
2022/07/04 01:26:43;;;;;;;5.63;2.40;;;;;;;16.64;73.89;98824.78;4139344;28;20036;-72
2022/07/04 01:28:44;;;;;;;3.08;2.22;;;;;;;16.62;74.01;98826.38;4137540;28;20037;-72
2022/07/04 01:30:45;;;;;;;2.42;2.00;;;;;;;16.65;73.72;98823.59;4138372;28;20026;-72
2022/07/04 01:32:45;;;;;;;2.45;2.20;;;;;;;16.64;74.00;98826.78;4138146;28;20060;-72
2022/07/04 01:34:46;;;;;;;2.65;2.05;;;;;;;16.60;73.87;98815.63;4139766;28;20033;-72
2022/07/04 01:36:46;;;;;;;3.22;2.20;;;;;;;16.55;74.36;98810.50;4138639;28;20029;-72
2022/07/04 01:38:46;;;;;;;2.40;2.20;;;;;;;16.51;74.77;98812.50;4138508;28;20038;-72
2022/07/04 01:40:46;;;;;;;3.55;2.40;;;;;;;16.40;75.25;98804.22;4136936;28;20455;-72
2022/07/04 01:42:47;;;;;;;4.70;2.25;;;;;;;16.36;75.75;98814.59;4138536;28;20029;-71
2022/07/04 01:44:47;;;;;;;3.92;2.28;;;;;;;16.16;76.82;98811.53;4139634;28;20037;-71
2022/07/04 01:46:47;;;;;;;3.05;2.70;;;;;;;16.04;77.52;98808.41;4137600;28;20351;-72
2022/07/04 01:48:48;;;;;;;2.95;2.30;;;;;;;15.92;78.20;98809.66;4138025;28;20504;-72
2022/07/04 01:50:48;;;;;;;2.30;2.10;;;;;;;15.82;78.55;98807.72;4139092;28;20030;-72
2022/07/04 01:52:48;;;;;;;4.45;2.20;;;;;;;15.83;79.00;98806.50;4137190;28;20454;-72
2022/07/04 01:54:49;;;;;;;3.63;2.38;;;;;;;15.73;79.56;98810.94;4136458;28;20084;-71
2022/07/04 01:56:49;;;;;;;3.55;2.33;;;;;;;15.67;79.77;98809.75;4138966;28;20040;-72
2022/07/04 01:58:49;;;;;;;5.03;2.40;;;;;;;15.68;79.68;98817.72;4138193;28;20072;-72
2022/07/04 02:03:09;;;;;;;3.13;2.58;;;;;;;15.67;79.45;98810.56;4138340;28;20080;-72
2022/07/04 02:05:10;;;;;;;3.88;2.30;;;;;;;15.70;79.28;98814.53;4138500;28;20502;-72
2022/07/04 02:07:10;;;;;;;2.95;2.33;;;;;;;15.71;79.15;98810.53;4139161;28;20030;-72
2022/07/04 02:09:16;;;;;;;3.22;2.60;;;;;;;15.70;79.41;98826.47;4137256;28;20034;-72
2022/07/04 02:11:16;;;;;;;2.63;2.22;;;;;;;15.68;79.26;98828.88;4136606;28;20162;-72
2022/07/04 02:13:17;;;;;;;2.53;2.33;;;;;;;15.66;78.96;98827.69;4137729;28;20494;-72
2022/07/04 02:15:17;;;;;;;3.05;2.10;;;;;;;15.63;79.64;98823.69;4138221;28;20030;-72
2022/07/04 02:17:18;;;;;;;7.60;2.63;;;;;;;15.55;80.13;98829.69;4136310;28;20030;-72
2022/07/04 02:19:18;;;;;;;4.05;2.40;;;;;;;15.56;80.18;98843.25;4136295;28;20072;-72
2022/07/04 02:21:18;;;;;;;5.22;2.83;;;;;;;15.46;81.38;98842.03;4135218;28;20036;-72
2022/07/04 02:23:19;;;;;;;4.68;2.22;;;;;;;15.44;80.69;98840.88;4135773;28;20030;-72
2022/07/04 02:25:19;;;;;;;5.25;2.20;;;;;;;15.41;80.94;98850.84;4136625;28;20061;-72
2022/07/04 02:27:20;;;;;;;2.63;2.20;;;;;;;15.40;80.57;98843.69;4134871;28;20030;-72
2022/07/04 02:29:20;;;;;;;2.67;1.98;;;;;;;15.36;80.33;98840.09;4137043;28;20111;-72
2022/07/04 02:31:20;;;;;;;2.50;2.30;;;;;;;15.31;80.67;98846.09;4137201;28;20416;-72
2022/07/04 02:33:21;;;;;;;3.33;2.13;;;;;;;15.25;81.52;98849.69;4135638;28;20032;-72
2022/07/04 02:35:21;;;;;;;3.03;2.22;;;;;;;15.20;81.57;98853.66;4135864;28;20049;-72
2022/07/04 02:37:21;;;;;;;2.50;2.30;;;;;;;15.16;81.82;98852.88;4136705;28;20117;-72
2022/07/04 02:39:22;;;;;;;3.58;2.30;;;;;;;15.16;81.51;98864.81;4136206;28;20846;-72
2022/07/04 02:41:22;;;;;;;3.75;2.30;;;;;;;15.14;80.95;98858.03;4137149;28;20022;-72
2022/07/04 02:43:23;;;;;;;5.30;2.53;;;;;;;15.08;81.67;98854.88;4135158;28;20097;-72
2022/07/04 02:45:23;;;;;;;2.42;2.03;;;;;;;15.04;82.38;98862.41;4135943;28;20042;-72
2022/07/04 02:47:23;;;;;;;2.75;2.40;;;;;;;14.99;82.73;98864.81;4137196;28;20038;-72
2022/07/04 02:49:24;;;;;;;2.78;2.10;;;;;;;14.95;82.39;98870.38;4133637;28;20041;-72
2022/07/04 02:51:24;;;;;;;2.90;2.10;;;;;;;14.96;82.73;98869.19;4136079;28;20049;-72
2022/07/04 02:53:25;;;;;;;2.30;2.10;;;;;;;14.99;82.58;98879.56;4134495;28;20038;-72
2022/07/04 02:55:25;;;;;;;5.30;2.25;;;;;;;14.98;82.60;98872.38;4135448;28;20373;-72
2022/07/04 02:57:25;;;;;;;2.65;2.45;;;;;;;15.04;82.88;98873.56;4135328;28;20627;-72
2022/07/04 02:59:26;;;;;;;3.65;2.20;;;;;;;15.09;81.82;98875.16;4135861;28;20034;-72
2022/07/04 03:01:26;;;;;;;3.95;2.08;;;;;;;15.12;82.27;98877.94;4134972;28;20026;-72
2022/07/04 03:03:27;;;;;;;3.88;2.60;;;;;;;15.05;82.55;98864.00;4135798;28;20049;-72
2022/07/04 03:05:31;;;;;;;3.88;2.42;;;;;;;15.07;83.03;98886.72;4135503;28;20548;-72
2022/07/04 03:07:31;;;;;;;5.88;2.40;;;;;;;14.99;82.64;98885.13;4135657;28;20033;-72
2022/07/04 03:09:32;;;;;;;2.60;2.25;;;;;;;14.95;82.91;98884.31;4135978;28;20386;-72
2022/07/04 03:11:32;;;;;;;3.50;2.25;;;;;;;14.96;82.95;98899.81;4135256;28;20101;-72
2022/07/04 03:13:33;;;;;;;3.20;2.33;;;;;;;14.89;83.70;98905.38;4133227;28;20474;-72
2022/07/04 03:15:33;;;;;;;2.90;2.50;;;;;;;14.83;84.08;98898.66;4136031;28;20030;-72
2022/07/04 03:17:34;;;;;;;4.50;2.80;;;;;;;14.78;83.98;98890.66;4135243;28;20034;-72
2022/07/04 03:19:34;;;;;;;3.40;2.85;;;;;;;14.78;83.88;98899.03;4134733;28;20058;-72
2022/07/04 03:21:34;;;;;;;3.42;2.53;;;;;;;14.78;84.08;98896.22;4135670;28;20034;-72
2022/07/04 03:23:35;;;;;;;3.00;2.60;;;;;;;14.77;83.99;98891.88;4133516;28;20037;-72
2022/07/04 03:25:35;;;;;;;3.95;3.35;;;;;;;14.78;83.55;98891.47;4133742;28;20117;-72
2022/07/04 03:27:36;;;;;;;5.35;2.88;;;;;;;14.77;83.65;98901.00;4134840;28;20034;-72
2022/07/04 03:29:36;;;;;;;3.80;2.50;;;;;;;14.73;84.54;98888.25;4134279;28;20525;-72
2022/07/04 03:31:37;;;;;;;3.10;2.65;;;;;;;14.72;83.55;98887.47;4134789;28;20013;-72
2022/07/04 03:33:37;;;;;;;2.92;2.53;;;;;;;14.75;83.02;98895.03;4136051;28;20042;-72
2022/07/04 03:35:38;;;;;;;7.15;2.95;;;;;;;14.72;84.25;98898.59;4134374;28;20028;-72
2022/07/04 03:37:38;;;;;;;5.63;2.70;;;;;;;14.73;84.49;98913.31;4135080;28;20033;-72
2022/07/04 03:39:38;;;;;;;4.20;2.60;;;;;;;14.80;82.70;98922.50;4135815;28;20500;-72
2022/07/04 03:41:39;;;;;;;4.50;2.83;;;;;;;14.83;82.55;98902.22;4132841;28;20464;-72
2022/07/04 03:43:40;;;;;;;3.55;2.45;;;;;;;14.92;81.15;98882.34;4135589;28;20148;-72
2022/07/04 03:45:40;;;;;;;6.65;2.65;;;;;;;15.02;81.42;98883.53;4134627;28;20034;-72
2022/07/04 03:47:40;;;;;;;3.45;3.13;;;;;;;15.00;83.15;98911.00;4135350;28;20061;-72
2022/07/04 03:49:41;;;;;;;3.55;2.70;;;;;;;14.97;83.10;98925.69;4133813;28;20022;-72
2022/07/04 03:51:41;;;;;;;3.42;2.60;;;;;;;14.91;82.57;98914.16;4134261;28;20030;-72
2022/07/04 03:53:42;;;;;;;4.68;2.60;;;;;;;14.98;81.05;98916.19;4135997;28;20037;-72
2022/07/04 03:55:43;;;;;;;3.28;2.97;;;;;;;14.98;81.59;98908.59;4134901;28;20497;-72
2022/07/04 03:57:43;;;;;;;3.50;2.60;;;;;;;14.98;82.51;98910.59;4133099;28;20442;-72
2022/07/04 03:59:44;;;;;;;4.03;2.85;;;;;;;14.98;81.83;98916.19;4134474;28;20092;-72
2022/07/04 04:01:44;;;;;;;5.88;3.75;;;;;;;15.02;81.55;98919.75;4134499;28;20796;-72
2022/07/04 04:06:04;;;;;;;4.13;2.25;;;;;;;15.04;82.56;98929.28;4134238;28;20091;-72
2022/07/04 04:08:04;;;;;;;4.28;2.72;;;;;;;15.10;82.42;98935.28;4133577;28;20069;-72
2022/07/04 04:10:05;;;;;;;4.60;3.15;;;;;;;15.12;82.46;98944.81;4133733;28;20148;-72
2022/07/04 04:12:06;;;;;;;4.50;2.70;;;;;;;15.18;82.50;98943.25;4134556;28;20564;-72
2022/07/04 04:14:06;;;;;;;4.22;2.83;;;;;;;15.25;82.23;98942.44;4134189;28;20030;-72
2022/07/04 04:16:07;;;;;;;3.33;3.00;;;;;;;15.33;81.30;98929.31;4133898;28;20028;-72
2022/07/04 04:18:07;;;;;;;4.18;3.20;;;;;;;15.37;80.86;98921.72;4134148;28;20037;-72
2022/07/04 04:20:08;;;;;;;3.92;3.22;;;;;;;15.42;81.13;98916.56;4134330;28;20037;-72
2022/07/04 04:22:09;;;;;;;3.53;2.97;;;;;;;15.49;80.42;98932.50;4134466;28;20519;-72
2022/07/04 04:24:09;;;;;;;3.50;2.70;;;;;;;15.56;80.45;98935.28;4134788;28;20030;-72
2022/07/04 04:26:09;;;;;;;3.78;3.38;;;;;;;15.61;80.33;98932.09;4134563;28;20156;-72
2022/07/04 04:28:10;;;;;;;4.43;2.60;;;;;;;15.69;80.33;98933.66;4132746;28;20835;-72
2022/07/04 04:30:11;;;;;;;5.28;2.70;;;;;;;15.75;80.13;98931.28;4134342;28;20045;-71
2022/07/04 04:32:11;;;;;;;4.25;2.85;;;;;;;15.83;79.57;98916.13;4134381;28;20390;-71
2022/07/04 04:34:11;;;;;;;2.78;2.50;;;;;;;15.87;79.11;98916.88;4133769;28;20026;-71
2022/07/04 04:36:12;;;;;;;3.88;2.80;;;;;;;15.88;78.74;98928.84;4134878;28;20050;-72
2022/07/04 04:38:12;;;;;;;3.40;2.78;;;;;;;15.93;77.51;98925.66;4132969;28;20026;-72
2022/07/04 04:40:13;;;;;;;4.80;2.80;;;;;;;16.01;78.20;98918.84;4133832;28;20420;-72
2022/07/04 04:42:13;;;;;;;3.08;2.72;;;;;;;16.09;78.38;98931.59;4134574;28;20175;-72
2022/07/04 04:44:13;;;;;;;6.20;2.90;;;;;;;16.08;78.01;98932.00;4134588;28;20168;-72
2022/07/04 04:46:14;;;;;;;3.03;2.75;;;;;;;16.09;77.98;98936.38;4133834;28;20030;-72
2022/07/04 04:48:14;;;;;;;4.43;2.55;;;;;;;16.06;77.71;98931.59;4134225;28;20104;-72
2022/07/04 04:50:15;;;;;;;4.40;3.10;;;;;;;16.04;78.09;98925.59;4132521;28;20252;-72
2022/07/04 04:52:15;;;;;;;5.93;2.90;;;;;;;16.04;77.81;98936.78;4132915;28;20054;-72
2022/07/04 04:54:16;;;;;;;3.67;2.92;;;;;;;16.04;78.74;98943.16;4135303;28;20030;-72
2022/07/04 04:56:16;;;;;;;5.90;2.75;;;;;;;16.12;77.93;98944.72;4074420;28;20160;-72
2022/07/04 04:58:16;;;;;;;3.67;2.97;;;;;;;16.26;77.52;98943.88;4133988;28;20022;-71
2022/07/04 05:00:17;;;;;;;4.20;2.95;;;;;;;16.25;77.13;98943.09;4133351;28;20037;-72
2022/07/04 05:02:17;;;;;;;10.00;2.80;;;;;;;16.28;77.96;98939.47;4134929;28;20468;-72
2022/07/04 05:04:18;;;;;;;4.57;2.65;;;;;;;16.29;78.20;98941.06;4133653;28;20498;-72
2022/07/04 05:06:18;;;;;;;3.20;2.90;;;;;;;16.26;77.35;98933.50;4134807;28;20060;-72
2022/07/04 05:08:18;;;;;;;3.70;2.70;;;;;;;16.31;77.39;98934.31;4134723;28;20033;-72
2022/07/04 05:10:19;;;;;;;3.83;3.40;;;;;;;16.32;77.42;98933.91;4134918;28;20188;-72
2022/07/04 05:12:19;;;;;;;4.00;2.88;;;;;;;16.38;77.21;98937.03;4132465;28;20053;-72
2022/07/04 05:14:19;;;;;;;6.93;2.95;;;;;;;16.42;76.84;98935.03;4134161;28;20053;-72
2022/07/04 05:16:20;;;;;;;6.82;3.33;;;;;;;16.49;76.45;98940.59;4133368;28;20066;-72
2022/07/04 05:18:20;;;;;;;4.70;3.25;;;;;;;16.50;76.39;98948.56;4132775;28;20467;-72
2022/07/04 05:20:20;;;;;;;4.57;3.55;;;;;;;16.56;76.33;98946.94;4135357;28;20347;-72
2022/07/04 05:22:21;;;;;;;3.70;3.40;;;;;;;16.54;76.36;98949.31;4133681;28;20025;-72
2022/07/04 05:24:21;;;;;;;5.03;3.47;;;;;;;16.53;76.54;98946.94;4133168;28;20034;-72
2022/07/04 05:26:22;;;;;;;6.43;3.40;;;;;;;16.52;75.77;98946.16;4133622;28;20034;-72
2022/07/04 05:28:22;;;;;;;6.40;3.40;;;;;;;16.53;76.04;98947.75;4134651;28;20045;-72
2022/07/04 05:30:23;;;;;;;4.88;3.22;;;;;;;16.50;76.18;98956.16;4132853;28;20038;-72
2022/07/04 05:32:25;;;;;;;5.63;3.30;;;;;;;16.48;76.34;98950.19;4134423;28;20022;-72
2022/07/04 05:34:25;;;;;;;6.07;3.40;;;;;;;16.52;76.65;98950.94;4131400;28;20613;-71
2022/07/04 05:36:26;;;;;;;5.88;3.20;;;;;;;16.60;76.00;98960.09;4132890;28;20034;-71
2022/07/04 05:38:26;;;;;;;4.85;2.90;;;;;;;16.66;76.14;98959.25;4133815;28;20034;-72
2022/07/04 05:40:27;;;;;;;6.30;3.40;;;;;;;16.72;75.97;98954.09;4133924;28;20117;-72
2022/07/04 05:42:27;;;;;;;3.47;3.10;;;;;;;16.76;75.61;98954.84;4132777;28;20023;-72
2022/07/04 05:44:28;;;;;;;9.02;3.17;;;;;;;16.79;74.93;98966.00;4135056;28;20068;-72
2022/07/04 05:46:28;;;;;;;4.47;3.00;;;;;;;16.76;74.64;98958.44;4132502;28;20046;-72
2022/07/04 05:48:29;;;;;;;4.88;2.97;;;;;;;16.76;73.00;98964.03;4131768;28;20503;-72
2022/07/04 05:50:29;;;;;;;3.63;2.58;;;;;;;16.74;73.45;98960.06;4134213;28;20385;-72
2022/07/04 05:52:30;;;;;;;3.22;2.50;;;;;;;16.69;71.60;98966.84;4135402;28;20037;-72
2022/07/04 05:54:30;;;;;;;2.95;2.30;;;;;;;16.68;71.21;98970.81;4136328;28;20038;-72
2022/07/04 05:56:30;;;;;;;3.70;2.33;;;;;;;16.70;72.04;98970.44;4135984;28;20022;-72
2022/07/04 05:58:31;;;;;;;2.90;2.13;;;;;;;16.74;71.81;98974.03;4135191;28;20034;-72
2022/07/04 06:00:31;;;;;;;2.78;2.30;;;;;;;16.79;71.93;98979.97;4136346;28;20349;-72
2022/07/04 06:02:32;;;;;;;3.55;2.50;;;;;;;16.84;69.52;98982.34;4137600;28;20029;-72
2022/07/04 06:04:32;;;;;;;4.88;2.10;;;;;;;16.90;67.54;98984.72;4138893;28;20042;-72
2022/07/04 06:06:33;;;;;;;3.58;2.35;;;;;;;16.99;67.61;98985.06;4138996;28;20037;-72
2022/07/04 06:08:34;;;;;;;5.40;2.40;;;;;;;17.03;64.62;98992.19;4138126;28;20036;-72
2022/07/04 06:10:34;;;;;;;3.97;2.10;;;;;;;17.04;62.71;98991.00;4138616;28;20316;-72
2022/07/04 06:12:35;;;;;;;3.17;2.20;;;;;;;17.12;62.79;98978.56;4138805;28;20140;-72
2022/07/04 06:14:35;;;;;;;3.03;1.88;;;;;;;17.20;62.39;98984.09;4139351;28;20033;-72
2022/07/04 06:16:35;;;;;;;3.15;1.70;;;;;;;17.25;61.45;98983.69;4138085;28;20458;-72
2022/07/04 06:18:36;;;;;;;5.28;2.00;;;;;;;17.26;61.82;98999.25;4137993;28;20625;-72
2022/07/04 06:20:36;;;;;;;4.78;1.83;;;;;;;17.19;60.41;98988.91;4138922;28;20493;-72
2022/07/04 06:22:45;;;;;;;6.53;1.50;;;;;;;17.25;60.85;98980.88;4137489;28;20072;-72
2022/07/04 06:24:45;;;;;;;4.75;1.67;;;;;;;17.33;60.82;98990.81;4138873;28;20029;-72
2022/07/04 06:26:46;;;;;;;4.00;1.60;;;;;;;17.36;58.60;98989.97;4138992;28;20061;-72
2022/07/04 06:28:46;;;;;;;2.47;1.60;;;;;;;17.27;58.88;98995.25;4138080;28;20049;-72
2022/07/04 06:30:47;;;;;;;1.85;1.65;;;;;;;17.20;59.64;98995.28;4138029;28;20116;-72
2022/07/04 06:32:50;;;;;;;2.03;1.70;;;;;;;17.27;59.86;98993.25;4138572;28;20026;-72
2022/07/04 06:37:09;;;;;;;4.65;1.50;;;;;;;17.25;60.46;98995.66;4137266;28;20258;-72
2022/07/04 06:39:09;;;;;;;3.13;1.52;;;;;;;17.27;60.25;98995.25;4136590;28;20374;-72
2022/07/04 06:41:11;;;;;;;3.13;1.60;;;;;;;17.30;61.14;98995.22;4138670;28;20033;-72
2022/07/04 06:43:11;;;;;;;1.90;1.60;;;;;;;17.37;61.34;99002.75;4137979;28;20245;-72
2022/07/04 06:45:12;;;;;;;2.17;1.70;;;;;;;17.41;61.94;98995.94;4138657;28;20037;-72
2022/07/04 06:47:12;;;;;;;3.00;1.55;;;;;;;17.33;61.64;98991.59;4138499;28;20046;-72
2022/07/04 06:49:13;;;;;;;2.72;1.77;;;;;;;17.42;62.19;98991.94;4137720;28;20026;-72
2022/07/04 06:51:13;;;;;;;3.33;1.98;;;;;;;17.48;61.26;98988.69;4139103;28;20362;-72
2022/07/04 06:53:13;;;;;;;1.80;1.48;;;;;;;17.56;61.44;98993.03;4137414;28;20297;-72
2022/07/04 06:55:14;;;;;;;5.35;1.75;;;;;;;17.75;61.58;98981.28;4138019;28;20022;-72
2022/07/04 06:57:14;;;;;;;2.58;2.00;;;;;;;17.92;60.18;98985.91;4138213;28;20034;-72
2022/07/04 06:59:15;;;;;;;2.20;1.40;;;;;;;17.99;59.78;98981.47;4135796;28;20038;-71
2022/07/04 07:01:16;;;;;;;4.72;1.83;;;;;;;17.99;59.53;98968.25;4138482;28;20473;-71
2022/07/04 07:06:13;;;;;;;2.13;1.73;;;;;;;18.25;59.63;98975.19;4137685;28;20053;-73
2022/07/04 07:08:13;;;;;;;2.17;1.63;;;;;;;18.17;57.83;98976.47;4137917;28;20037;-72
2022/07/04 07:10:13;;;;;;;1.90;1.50;;;;;;;18.35;57.67;98968.66;4137418;28;20041;-72
2022/07/04 07:12:14;;;;;;;4.60;1.65;;;;;;;18.39;58.21;98969.41;4138209;28;20386;-72
2022/07/04 07:14:14;;;;;;;1.50;1.40;;;;;;;18.30;56.55;98969.13;4138168;28;20033;-72
2022/07/04 07:16:15;;;;;;;2.05;1.20;;;;;;;18.33;55.24;98968.28;4137336;28;20030;-72
2022/07/04 07:18:16;;;;;;;1.65;1.30;;;;;;;18.43;54.47;98967.34;4137101;28;20030;-72
2022/07/04 07:20:16;;;;;;;2.60;1.30;;;;;;;18.45;53.40;98970.53;4138173;28;20022;-72
2022/07/04 07:22:17;;;;;;;1.48;1.20;;;;;;;18.48;55.60;98966.09;4137883;28;20036;-72
2022/07/04 07:24:17;;;;;;;1.70;1.30;;;;;;;18.60;54.82;98967.53;4138025;28;20034;-72
2022/07/04 07:26:17;;;;;;;1.83;1.30;;;;;;;18.72;53.24;98975.44;4136890;28;20042;-72
2022/07/04 07:28:18;;;;;;;1.63;1.30;;;;;;;18.69;53.45;98965.03;4137500;28;20120;-72
2022/07/04 07:30:18;;;;;;;2.65;1.30;;;;;;;18.90;52.94;98959.16;4137274;28;20034;-72
2022/07/04 07:32:19;;;;;;;3.40;1.50;;;;;;;18.88;52.33;98964.41;4136942;28;20034;-72
2022/07/04 07:34:19;;;;;;;2.63;1.15;;;;;;;18.95;52.93;98963.47;4137267;28;20040;-72
2022/07/04 07:36:19;;;;;;;2.80;1.38;;;;;;;19.05;54.50;98963.34;4138517;28;20057;-72
2022/07/04 07:38:20;;;;;;;2.33;1.00;;;;;;;19.11;54.27;98965.66;4137721;28;20034;-72
2022/07/04 07:40:20;;;;;;;1.40;1.13;;;;;;;19.03;56.40;98970.56;4137225;28;20040;-71
2022/07/04 07:42:23;;;;;;;1.98;1.50;;;;;;;19.04;55.94;98964.56;4136140;28;20172;-71
2022/07/04 07:44:24;;;;;;;3.88;1.50;;;;;;;19.01;56.31;98967.41;4136834;28;20465;-71
2022/07/04 07:46:24;;;;;;;1.67;1.58;;;;;;;18.97;56.66;98964.66;4136829;28;20041;-72
2022/07/04 07:48:24;;;;;;;2.05;1.17;;;;;;;18.92;56.47;98964.34;4135709;28;20061;-72
2022/07/04 07:50:25;;;;;;;2.35;1.30;;;;;;;18.83;57.09;98967.66;4137745;28;20474;-72
2022/07/04 07:52:25;;;;;;;1.92;1.40;;;;;;;18.80;56.00;98957.31;4137659;28;20036;-72
2022/07/04 07:54:26;;;;;;;2.72;1.30;;;;;;;18.71;56.63;98968.25;4138117;28;20452;-72
2022/07/04 07:56:26;;;;;;;2.13;1.40;;;;;;;18.64;57.14;98954.28;4136451;28;20069;-72
2022/07/04 07:58:27;;;;;;;2.00;1.42;;;;;;;18.84;56.67;98957.25;4136547;28;20040;-72
2022/07/04 08:00:27;;;;;;;4.47;1.80;;;;;;;18.95;55.72;98950.28;4135667;28;20029;-72
2022/07/04 08:04:47;;;;;;;1.33;1.23;;;;;;;19.31;56.34;98941.31;4137064;28;20088;-72
2022/07/04 08:06:47;;;;;;;2.05;1.35;;;;;;;19.38;54.73;98951.63;4137737;28;20113;-72
2022/07/04 08:08:47;;;;;;;3.30;1.70;;;;;;;19.42;53.86;98946.72;4135781;28;20080;-72
2022/07/04 08:10:48;;;;;;;3.33;1.77;;;;;;;19.35;54.47;98942.03;4137018;28;20030;-72
2022/07/04 08:12:48;;;;;;;2.88;1.60;;;;;;;19.50;53.55;98940.56;4137112;28;20049;-72
2022/07/04 08:14:48;;;;;;;3.45;1.50;;;;;;;19.58;53.88;98942.06;4137076;28;20057;-72
2022/07/04 08:16:49;;;;;;;2.20;1.55;;;;;;;19.72;54.16;98934.63;4136631;28;20088;-72
2022/07/04 08:18:50;;;;;;;2.58;1.85;;;;;;;19.85;53.41;98944.78;4136283;28;20038;-72
2022/07/04 08:20:50;;;;;;;3.38;1.73;;;;;;;19.77;53.24;98934.13;4137588;28;20575;-72
2022/07/04 08:22:51;;;;;;;2.63;1.60;;;;;;;19.80;53.77;98934.06;4136345;28;20037;-72
2022/07/04 08:24:51;;;;;;;3.00;1.60;;;;;;;19.86;55.01;98929.56;4136478;28;20080;-72
2022/07/04 08:26:51;;;;;;;3.45;1.90;;;;;;;19.99;54.76;98926.88;4136724;28;20029;-72
2022/07/04 08:28:55;;;;;;;3.70;2.17;;;;;;;20.16;54.19;98939.78;4135764;28;20045;-72
2022/07/04 08:30:56;;;;;;;2.35;1.60;;;;;;;20.14;52.77;98930.22;4137004;28;20034;-72
2022/07/04 08:32:57;;;;;;;2.75;1.80;;;;;;;20.08;53.07;98926.31;4135734;28;20124;-72
2022/07/04 08:34:57;;;;;;;2.55;1.60;;;;;;;19.94;53.67;98930.19;4137523;28;20061;-72
2022/07/04 08:36:58;;;;;;;3.38;1.70;;;;;;;19.81;54.52;98934.84;4136340;28;20301;-72
2022/07/04 08:38:58;;;;;;;2.10;1.70;;;;;;;19.73;53.70;98924.97;4136250;28;20064;-72
2022/07/04 08:41:02;;;;;;;2.22;1.60;;;;;;;19.60;54.52;98928.38;4137250;28;20060;-72
2022/07/04 08:43:03;;;;;;;4.90;1.90;;;;;;;19.66;53.99;98925.09;4135433;28;20037;-72
2022/07/04 08:45:06;;;;;;;2.58;1.73;;;;;;;19.78;54.63;98932.91;4137155;28;20041;-72
2022/07/04 08:47:10;;;;;;;2.28;1.55;;;;;;;19.91;55.43;98929.03;4136421;28;20352;-72
2022/07/04 08:49:20;;;;;;;3.78;1.80;;;;;;;20.17;53.60;98930.13;4134559;28;20049;-71
2022/07/04 08:51:37;;;;;;;2.85;1.80;;;;;;;20.19;53.50;98929.72;4135163;28;20061;-72
2022/07/04 08:53:39;;;;;;;2.33;1.55;;;;;;;20.19;53.28;98927.69;4135964;28;20510;-72
2022/07/04 09:00:19;;;;;;;5.50;1.70;;;;;;;20.39;53.33;98926.91;4135555;28;20073;-72
2022/07/04 09:02:20;;;;;;;3.40;1.80;;;;;;;20.52;53.36;98925.06;4137138;28;20514;-72
2022/07/04 09:04:21;;;;;;;3.10;2.03;;;;;;;20.61;51.94;98918.84;4135210;28;20030;-72
2022/07/04 09:06:23;;;;;;;3.45;3.05;;;;;;;20.58;51.95;98928.91;4137478;28;20069;-72
2022/07/04 09:08:25;;;;;;;9.48;6.00;;;;;;;20.68;52.03;98933.50;4136078;28;20044;-72
2022/07/04 09:10:26;;;;;;;3.55;2.17;;;;;;;20.72;51.81;98931.41;4136270;28;20561;-72
2022/07/04 09:12:27;;;;;;;2.35;1.83;;;;;;;20.79;51.33;98930.47;4135746;28;20121;-72
2022/07/04 09:14:27;;;;;;;5.88;2.03;;;;;;;20.90;51.61;98928.19;4136817;28;20054;-71
2022/07/04 09:16:27;;;;;;;4.60;1.77;;;;;;;20.96;50.36;98932.09;4136672;28;20168;-72
2022/07/04 09:18:30;;;;;;;3.30;1.98;;;;;;;21.08;50.91;98924.97;4135273;28;20379;-72
2022/07/04 09:20:33;;;;;;;4.28;1.75;;;;;;;21.18;50.34;98931.56;4136293;28;20357;-72
2022/07/04 09:22:33;;;;;;;3.10;1.95;;;;;;;21.19;51.00;98931.16;4136288;28;20041;-72
2022/07/04 09:24:45;;;;;;;4.53;2.40;;;;;;;20.94;51.17;98917.69;4136686;28;20370;-72
2022/07/04 09:26:46;;;;;;;4.32;1.90;;;;;;;21.12;51.81;98922.88;4135057;28;20469;-72
2022/07/04 09:28:56;;;;;;;4.47;2.00;;;;;;;21.33;50.41;98923.59;4135343;28;20504;-72
2022/07/04 09:30:58;;;;;;;1.95;1.80;;;;;;;21.30;50.25;98928.88;4135789;28;20073;-72
2022/07/04 09:33:02;;;;;;;3.50;1.70;;;;;;;21.26;51.21;98928.13;4136003;28;20395;-72
2022/07/04 09:35:05;;;;;;;3.00;1.98;;;;;;;21.19;50.86;98925.53;4135498;28;20295;-72
2022/07/04 09:37:05;;;;;;;2.45;1.85;;;;;;;21.11;51.14;98920.50;4139334;28;20040;-71
2022/07/04 09:39:09;;;;;;;2.35;1.90;;;;;;;20.83;50.66;98916.31;4137940;28;20034;-72
2022/07/04 09:41:24;;;;;;;2.10;1.63;;;;;;;20.92;51.16;98919.31;4138875;28;20478;-72
2022/07/04 09:43:25;;;;;;;3.47;1.70;;;;;;;21.01;51.12;98911.06;4139347;28;20099;-72
2022/07/04 09:45:26;;;;;;;5.30;2.88;;;;;;;20.81;51.27;98916.75;4139907;28;20196;-72